Time;durP1;ratioP1;P1;durP2;ratioP2;P2;SDS_P1;SDS_P2;PMS_P1;PMS_P2;Temp;Humidity;BMP_temperature;BMP_pressure;BME280_temperature;BME280_humidity;BME280_pressure;Samples;Min_cycle;Max_cycle;Signal;HPM_P1;HPM_P2
2021/03/18 00:01:12;;;;;;;12.67;10.73;;;4.10;1.00;;;;;;5158835;27;20174;-66
2021/03/18 00:03:39;;;;;;;14.00;10.80;;;4.00;1.00;;;;;;5159176;27;20196;-65
2021/03/18 00:06:06;;;;;;;14.10;11.98;;;3.90;1.00;;;;;;5159943;27;20199;-65
2021/03/18 00:08:39;;;;;;;15.00;12.15;;;3.80;1.00;;;;;;5159705;27;20184;-65
2021/03/18 00:11:08;;;;;;;16.73;11.73;;;3.60;1.00;;;;;;5159778;27;20182;-64
2021/03/18 00:13:34;;;;;;;18.52;12.98;;;3.60;1.00;;;;;;5159533;27;20190;-65
2021/03/18 00:16:01;;;;;;;13.43;11.05;;;3.60;1.00;;;;;;5159983;27;20197;-65
2021/03/18 00:18:31;;;;;;;12.43;8.93;;;3.60;1.00;;;;;;5159758;27;20185;-65
2021/03/18 00:21:02;;;;;;;14.55;11.02;;;3.50;1.00;;;;;;5159735;27;20213;-65
2021/03/18 00:23:31;;;;;;;15.90;11.77;;;3.50;1.00;;;;;;5159863;27;20170;-65
2021/03/18 00:26:00;;;;;;;15.23;11.23;;;3.50;1.00;;;;;;5159976;27;20215;-65
2021/03/18 00:28:26;;;;;;;13.27;10.30;;;3.50;1.00;;;;;;5159468;27;20175;-65
2021/03/18 00:30:52;;;;;;;17.55;12.10;;;3.50;1.00;;;;;;5159555;27;20174;-64
2021/03/18 00:33:17;;;;;;;16.93;12.20;;;3.50;9.80;;;;;;5160265;27;20731;-65
2021/03/18 00:35:43;;;;;;;15.10;11.07;;;3.50;17.60;;;;;;5159951;27;20224;-64
2021/03/18 00:38:10;;;;;;;15.05;11.65;;;3.70;15.90;;;;;;5159688;27;20183;-64
2021/03/18 00:40:43;;;;;;;17.60;12.75;;;3.60;17.20;;;;;;5159426;27;20180;-64
2021/03/18 00:43:14;;;;;;;14.38;11.40;;;3.50;32.90;;;;;;5159059;27;20182;-66
2021/03/18 00:45:41;;;;;;;15.82;11.95;;;3.60;46.60;;;;;;5157704;27;20170;-64
2021/03/18 00:48:08;;;;;;;13.95;11.52;;;3.70;51.60;;;;;;5159120;27;20558;-64
2021/03/18 00:50:40;;;;;;;16.40;12.27;;;3.80;58.70;;;;;;5158650;27;20166;-64
2021/03/18 00:53:07;;;;;;;17.67;11.65;;;4.00;45.70;;;;;;5157344;27;20621;-64
2021/03/18 00:55:33;;;;;;;16.45;11.95;;;4.10;18.60;;;;;;5157817;27;20513;-65
2021/03/18 00:57:58;;;;;;;19.63;11.73;;;4.10;13.30;;;;;;5157241;27;20300;-65
2021/03/18 01:00:36;;;;;;;18.13;12.70;;;4.20;1.00;;;;;;5156804;27;20418;-65
2021/03/18 01:03:02;;;;;;;13.65;11.02;;;4.50;1.00;;;;;;5156705;27;20883;-65
2021/03/18 01:05:45;;;;;;;15.63;11.70;;;4.40;1.00;;;;;;5156259;27;20204;-65
2021/03/18 01:08:13;;;;;;;18.10;12.80;;;4.50;1.00;;;;;;5156590;27;20361;-66
2021/03/18 01:10:48;;;;;;;17.67;12.95;;;4.30;1.00;;;;;;5156978;27;20230;-64
2021/03/18 01:13:19;;;;;;;36.70;23.00;;;3.90;1.00;;;;;;5156640;27;20174;-64
2021/03/18 01:16:06;;;;;;;17.80;12.23;;;3.90;1.00;;;;;;5139692;27;20179;-65
2021/03/18 01:18:39;;;;;;;17.10;12.73;;;3.80;11.50;;;;;;5157463;27;20170;-65
2021/03/18 01:21:06;;;;;;;15.30;11.90;;;3.80;27.00;;;;;;5157500;27;20277;-65
2021/03/18 01:23:33;;;;;;;14.77;11.00;;;3.80;39.00;;;;;;5157778;27;20170;-65
2021/03/18 01:25:59;;;;;;;16.40;11.35;;;3.70;51.90;;;;;;5158492;27;20174;-65
2021/03/18 01:28:25;;;;;;;15.53;11.10;;;3.60;93.00;;;;;;5158015;27;20185;-65
2021/03/18 01:30:53;;;;;;;15.77;10.82;;;3.50;99.90;;;;;;5158093;27;20178;-65
2021/03/18 01:33:18;;;;;;;17.85;12.40;;;3.30;99.90;;;;;;5157864;27;20213;-65
2021/03/18 01:35:44;;;;;;;19.43;12.23;;;3.30;99.90;;;;;;5158841;27;20197;-65
2021/03/18 01:38:10;;;;;;;22.53;12.37;;;3.20;99.90;;;;;;5157923;27;20447;-65
2021/03/18 01:40:36;;;;;;;18.23;11.77;;;3.10;99.90;;;;;;5158718;27;20174;-65
2021/03/18 01:43:01;;;;;;;18.23;12.57;;;3.00;99.90;;;;;;5158180;27;20249;-65
2021/03/18 01:45:27;;;;;;;18.63;11.93;;;3.00;99.90;;;;;;5157842;27;20591;-65
2021/03/18 01:47:55;;;;;;;20.87;13.80;;;3.00;99.90;;;;;;5157082;27;20186;-65
2021/03/18 01:50:27;;;;;;;21.85;14.00;;;2.90;99.90;;;;;;5156318;27;20209;-63
2021/03/18 01:52:55;;;;;;;18.02;12.45;;;2.80;99.90;;;;;;5155125;27;20178;-65
2021/03/18 01:55:37;;;;;;;19.20;13.65;;;2.90;99.90;;;;;;5155168;27;20184;-65
2021/03/18 01:58:07;;;;;;;19.98;10.82;;;2.90;99.90;;;;;;5156227;27;20221;-64
2021/03/18 02:00:35;;;;;;;16.20;10.98;;;2.90;99.90;;;;;;5156170;27;20162;-65
2021/03/18 02:03:02;;;;;;;19.83;12.77;;;2.90;99.90;;;;;;5157776;27;20658;-65
2021/03/18 02:05:29;;;;;;;17.00;11.25;;;2.70;99.90;;;;;;5157837;27;20481;-65
2021/03/18 02:07:55;;;;;;;18.63;10.50;;;2.70;99.90;;;;;;5157701;27;20221;-64
2021/03/18 02:10:31;;;;;;;21.30;13.02;;;2.70;99.90;;;;;;5158737;27;20208;-65
2021/03/18 02:13:01;;;;;;;15.77;11.65;;;2.50;99.90;;;;;;5158710;27;20170;-68
2021/03/18 02:16:04;;;;;;;22.63;13.25;;;2.50;99.90;;;;;;5157643;27;20182;-66
2021/03/18 02:18:47;;;;;;;20.13;13.57;;;2.50;99.90;;;;;;5139522;27;20280;-65
2021/03/18 02:21:30;;;;;;;19.60;13.75;;;2.60;99.90;;;;;;5156189;27;20201;-65
2021/03/18 02:24:47;;;;;;;21.02;12.95;;;2.50;99.90;;;;;;5159809;27;20170;-66
2021/03/18 02:27:53;;;;;;;19.50;12.35;;;2.40;99.90;;;;;;5116068;27;20210;-65
2021/03/18 02:30:38;;;;;;;20.30;14.13;;;2.50;99.90;;;;;;5162129;27;20204;-70
2021/03/18 02:33:28;;;;;;;18.95;13.23;;;2.50;99.90;;;;;;5160291;27;20181;-65
2021/03/18 02:36:07;;;;;;;17.67;12.05;;;2.30;99.90;;;;;;5161509;27;20180;-64
2021/03/18 02:38:45;;;;;;;21.85;13.00;;;2.20;99.90;;;;;;5161734;27;20573;-65
2021/03/18 02:41:18;;;;;;;23.63;13.25;;;2.20;99.90;;;;;;5161589;27;20418;-64
2021/03/18 02:44:07;;;;;;;21.17;14.18;;;2.00;99.90;;;;;;5160962;27;20233;-65
2021/03/18 02:46:35;;;;;;;20.88;12.95;;;1.90;99.90;;;;;;5161909;27;20190;-65
2021/03/18 02:49:04;;;;;;;19.23;13.32;;;1.70;99.90;;;;;;5162254;27;20181;-65
2021/03/18 02:51:37;;;;;;;22.13;12.73;;;1.70;99.90;;;;;;5162734;27;20245;-65
2021/03/18 02:54:08;;;;;;;22.17;11.82;;;1.60;99.90;;;;;;5162598;27;20629;-65
2021/03/18 02:56:37;;;;;;;19.48;12.43;;;1.40;99.90;;;;;;5161192;27;20205;-66
2021/03/18 02:59:07;;;;;;;20.55;13.07;;;1.40;99.90;;;;;;5162375;27;20633;-65
2021/03/18 03:01:34;;;;;;;22.08;13.20;;;1.40;99.90;;;;;;5161227;27;20192;-64
2021/03/18 03:04:01;;;;;;;20.33;10.20;;;1.60;99.90;;;;;;5160737;27;20184;-65
2021/03/18 03:06:28;;;;;;;17.27;10.98;;;1.50;99.90;;;;;;5161902;27;20685;-65
2021/03/18 03:08:55;;;;;;;22.33;10.43;;;1.00;99.90;;;;;;5161511;27;20171;-65
2021/03/18 03:11:24;;;;;;;22.75;8.63;;;1.00;99.90;;;;;;5162095;27;20166;-67
2021/03/18 03:13:51;;;;;;;24.25;7.53;;;0.80;99.90;;;;;;5161764;27;20166;-65
2021/03/18 03:16:21;;;;;;;25.98;10.32;;;0.70;99.90;;;;;;5161714;27;20201;-65
2021/03/18 03:18:51;;;;;;;17.02;8.38;;;0.60;99.90;;;;;;5161782;27;20166;-65
2021/03/18 03:21:20;;;;;;;21.40;8.52;;;0.60;99.90;;;;;;5162124;27;20185;-65
2021/03/18 03:23:47;;;;;;;21.35;9.60;;;0.60;99.90;;;;;;5160376;27;20726;-65
2021/03/18 03:26:17;;;;;;;11.88;7.45;;;0.70;99.90;;;;;;5161263;27;20259;-65
2021/03/18 03:28:43;;;;;;;19.77;8.18;;;0.60;99.90;;;;;;5161831;27;20182;-66
2021/03/18 03:31:09;;;;;;;19.45;7.63;;;0.30;99.90;;;;;;5161443;27;20193;-65
2021/03/18 03:33:36;;;;;;;10.97;6.97;;;0.50;99.90;;;;;;5161325;27;20177;-65
2021/03/18 03:36:02;;;;;;;16.65;6.15;;;0.40;99.90;;;;;;5160446;27;20419;-65
2021/03/18 03:38:28;;;;;;;29.73;9.57;;;0.40;99.90;;;;;;5161130;27;20170;-65
2021/03/18 03:40:55;;;;;;;17.50;8.43;;;0.30;99.90;;;;;;5161599;27;20579;-65
2021/03/18 03:43:21;;;;;;;13.00;8.35;;;0.40;99.90;;;;;;5161210;27;20174;-65
2021/03/18 03:45:52;;;;;;;11.13;7.80;;;0.70;99.90;;;;;;5161257;27;20239;-65
2021/03/18 03:48:21;;;;;;;10.95;7.20;;;0.60;99.90;;;;;;5160216;27;20520;-68
2021/03/18 03:50:48;;;;;;;16.27;8.07;;;0.30;99.90;;;;;;5161578;27;20605;-64
2021/03/18 03:53:41;;;;;;;14.75;7.38;;;0.40;99.90;;;;;;5160890;27;20182;-65
2021/03/18 03:56:22;;;;;;;14.07;8.38;;;0.40;99.90;;;;;;5160949;27;20194;-65
2021/03/18 03:59:02;;;;;;;21.08;7.03;;;0.30;99.90;;;;;;5161326;27;20174;-64
2021/03/18 04:01:48;;;;;;;14.90;7.70;;;0.10;99.90;;;;;;5161403;27;20181;-64
2021/03/18 04:04:35;;;;;;;10.23;6.80;;;0.10;99.90;;;;;;5161067;27;20166;-65
2021/03/18 04:07:10;;;;;;;18.60;7.78;;;-0.10;99.90;;;;;;5159798;27;20626;-64
2021/03/18 04:09:38;;;;;;;10.23;5.30;;;-0.10;99.90;;;;;;5160943;27;20188;-65
2021/03/18 04:12:06;;;;;;;17.90;6.07;;;0.20;99.90;;;;;;5161123;27;20500;-64
2021/03/18 04:14:34;;;;;;;11.75;7.57;;;0.10;99.90;;;;;;5160932;27;20205;-66
2021/03/18 04:17:07;;;;;;;20.95;7.53;;;0.20;99.90;;;;;;5160499;27;20252;-66
2021/03/18 04:19:33;;;;;;;26.38;6.82;;;0.10;99.90;;;;;;5160342;27;20201;-64
2021/03/18 04:22:00;;;;;;;16.95;6.57;;;0.30;99.90;;;;;;5161207;27;20170;-64
2021/03/18 04:24:26;;;;;;;20.48;7.95;;;0.40;99.90;;;;;;5160735;27;20259;-64
2021/03/18 04:26:56;;;;;;;11.13;7.55;;;0.20;99.90;;;;;;5160926;27;20192;-64
2021/03/18 04:29:23;;;;;;;11.25;5.80;;;0.50;99.90;;;;;;5160482;27;20178;-65
2021/03/18 04:31:50;;;;;;;19.55;8.30;;;0.70;99.90;;;;;;5160336;27;20270;-66
2021/03/18 04:34:18;;;;;;;11.98;6.32;;;0.70;99.90;;;;;;5159816;27;20187;-65
2021/03/18 04:36:47;;;;;;;28.15;7.03;;;0.60;99.90;;;;;;5158456;27;20222;-66
2021/03/18 04:39:14;;;;;;;14.00;7.40;;;0.70;99.90;;;;;;5158945;27;20205;-66
2021/03/18 04:41:41;;;;;;;13.82;7.97;;;0.80;99.90;;;;;;5159178;27;20257;-65
2021/03/18 04:44:07;;;;;;;13.25;7.97;;;1.00;99.90;;;;;;5158038;27;20610;-65
2021/03/18 04:46:36;;;;;;;12.55;7.03;;;1.00;99.90;;;;;;5159343;27;20559;-66
2021/03/18 04:49:03;;;;;;;18.60;7.38;;;1.00;99.90;;;;;;5159405;27;20386;-65
2021/03/18 04:51:28;;;;;;;15.15;7.57;;;1.00;99.90;;;;;;5158134;27;20174;-65
2021/03/18 04:53:57;;;;;;;19.00;7.90;;;1.10;99.90;;;;;;5159454;27;20170;-65
2021/03/18 04:56:26;;;;;;;15.20;7.85;;;1.00;99.90;;;;;;5159623;27;20454;-65
2021/03/18 04:58:53;;;;;;;18.42;7.35;;;1.10;99.90;;;;;;5157992;27;20243;-65
2021/03/18 05:01:22;;;;;;;11.68;6.78;;;1.30;99.90;;;;;;5158986;27;20311;-65
2021/03/18 05:03:48;;;;;;;19.98;7.85;;;1.40;99.90;;;;;;5158963;27;20277;-65
2021/03/18 05:06:14;;;;;;;12.10;7.07;;;1.70;99.90;;;;;;5158647;27;20213;-65
2021/03/18 05:08:41;;;;;;;15.43;6.75;;;1.70;99.90;;;;;;5159020;27;20170;-65
2021/03/18 05:11:09;;;;;;;13.93;7.47;;;1.70;99.90;;;;;;5159170;27;20685;-65
2021/03/18 05:13:36;;;;;;;19.00;6.53;;;1.70;99.90;;;;;;5158815;27;20178;-65
2021/03/18 05:16:03;;;;;;;16.05;7.82;;;1.80;99.90;;;;;;5158755;27;20246;-65
2021/03/18 05:18:31;;;;;;;16.67;7.80;;;2.00;99.90;;;;;;5158240;27;20170;-65
2021/03/18 05:21:00;;;;;;;21.08;6.70;;;2.10;99.90;;;;;;5158474;27;20282;-64
2021/03/18 05:23:26;;;;;;;16.77;8.82;;;2.00;99.90;;;;;;5157982;27;20163;-64
2021/03/18 05:25:51;;;;;;;21.93;8.00;;;2.10;99.90;;;;;;5158280;27;20189;-65
2021/03/18 05:28:17;;;;;;;12.70;7.57;;;2.30;99.90;;;;;;5158524;27;20174;-65
2021/03/18 05:30:43;;;;;;;11.10;6.77;;;2.30;99.90;;;;;;5158245;27;20186;-65
2021/03/18 05:33:09;;;;;;;13.63;7.30;;;2.50;99.90;;;;;;5157115;27;20232;-64
2021/03/18 05:35:38;;;;;;;12.50;7.30;;;2.60;99.90;;;;;;5157087;27;20606;-64
2021/03/18 05:38:09;;;;;;;18.52;8.85;;;2.60;99.90;;;;;;5157551;27;20205;-65
2021/03/18 05:40:36;;;;;;;15.18;7.85;;;2.70;99.90;;;;;;5158081;27;20235;-66
2021/03/18 05:43:03;;;;;;;16.70;8.07;;;3.00;99.90;;;;;;5158623;27;20226;-65
2021/03/18 05:45:29;;;;;;;15.00;7.90;;;2.90;99.90;;;;;;5158197;27;20185;-65
2021/03/18 05:47:56;;;;;;;13.03;7.00;;;2.80;99.90;;;;;;5158151;27;20186;-65
2021/03/18 05:50:22;;;;;;;18.80;8.02;;;2.90;99.90;;;;;;5158020;27;20773;-65
2021/03/18 05:52:49;;;;;;;11.02;7.07;;;3.10;99.90;;;;;;5158456;27;20595;-65
2021/03/18 05:55:16;;;;;;;11.52;6.93;;;3.20;99.90;;;;;;5157180;27;20247;-64
2021/03/18 05:57:45;;;;;;;16.42;7.88;;;3.40;99.90;;;;;;5156294;27;20216;-64
2021/03/18 06:00:12;;;;;;;17.73;6.68;;;3.40;99.90;;;;;;5155912;27;20166;-64
2021/03/18 06:02:39;;;;;;;13.00;7.97;;;3.40;99.90;;;;;;5156766;27;20174;-64
2021/03/18 06:05:13;;;;;;;12.25;7.20;;;3.50;99.90;;;;;;5156351;27;20508;-64
2021/03/18 06:07:41;;;;;;;17.33;7.80;;;3.40;99.90;;;;;;5157031;27;20204;-65
2021/03/18 06:10:09;;;;;;;11.60;6.35;;;3.60;99.90;;;;;;5156469;27;20241;-65
2021/03/18 06:12:39;;;;;;;16.65;7.15;;;3.80;99.90;;;;;;5156347;27;20272;-66
2021/03/18 06:15:13;;;;;;;14.80;7.45;;;3.70;99.90;;;;;;5157219;27;20533;-67
2021/03/18 06:17:39;;;;;;;15.27;7.85;;;3.70;99.90;;;;;;5156605;27;20220;-65
2021/03/18 06:20:08;;;;;;;15.75;7.78;;;3.90;99.90;;;;;;5156618;27;20177;-66
2021/03/18 06:22:37;;;;;;;15.02;7.90;;;3.80;99.90;;;;;;5157342;27;20594;-66
2021/03/18 06:25:05;;;;;;;14.93;8.55;;;3.80;99.90;;;;;;5156444;27;20177;-66
2021/03/18 06:27:31;;;;;;;12.30;6.50;;;3.70;99.90;;;;;;5156902;27;20170;-65
2021/03/18 06:29:56;;;;;;;14.63;7.40;;;3.70;99.90;;;;;;5155546;27;20266;-64
2021/03/18 06:32:24;;;;;;;15.20;8.00;;;3.90;99.90;;;;;;5157100;27;20235;-64
2021/03/18 06:34:52;;;;;;;16.77;8.45;;;4.00;99.90;;;;;;5157047;27;20242;-64
2021/03/18 06:37:41;;;;;;;11.85;6.32;;;3.70;99.90;;;;;;5156937;27;20198;-65
2021/03/18 06:40:18;;;;;;;15.93;8.20;;;3.80;99.90;;;;;;5157333;27;20263;-65
2021/03/18 06:42:58;;;;;;;14.05;7.30;;;3.80;99.90;;;;;;5156569;27;20230;-64
2021/03/18 06:45:39;;;;;;;18.10;7.60;;;3.80;99.90;;;;;;5156256;27;20378;-65
2021/03/18 06:48:09;;;;;;;15.02;9.32;;;4.20;99.90;;;;;;5156326;27;20180;-65
2021/03/18 06:50:44;;;;;;;15.73;7.47;;;4.10;99.90;;;;;;5157779;27;20275;-64
2021/03/18 06:53:29;;;;;;;16.65;8.32;;;3.90;99.90;;;;;;5156971;27;20295;-64
2021/03/18 06:55:55;;;;;;;14.93;7.70;;;3.60;99.90;;;;;;5156139;27;20598;-66
2021/03/18 06:58:26;;;;;;;18.33;8.63;;;4.00;99.90;;;;;;5155759;27;20193;-65
2021/03/18 07:00:55;;;;;;;13.48;8.07;;;4.40;99.90;;;;;;5155510;27;20303;-65
2021/03/18 07:03:25;;;;;;;14.60;8.02;;;4.40;99.90;;;;;;5155577;27;20189;-64
2021/03/18 07:05:51;;;;;;;15.30;6.88;;;4.60;99.90;;;;;;5155656;27;20178;-65
2021/03/18 07:08:31;;;;;;;14.10;7.50;;;4.40;54.20;;;;;;5155810;27;20194;-65
2021/03/18 07:10:58;;;;;;;15.13;8.23;;;4.20;42.70;;;;;;5159361;27;20510;-65
2021/03/18 07:13:29;;;;;;;15.43;7.18;;;4.50;60.40;;;;;;5159857;27;20170;-65
2021/03/18 07:15:57;;;;;;;14.63;7.68;;;4.50;9.60;;;;;;5160047;27;20206;-65
2021/03/18 07:18:25;;;;;;;14.48;7.40;;;4.50;8.60;;;;;;5159152;27;20182;-65
2021/03/18 07:21:10;;;;;;;19.20;9.35;;;4.60;1.00;;;;;;5158818;27;20488;-66
2021/03/18 07:23:46;;;;;;;16.60;8.82;;;4.60;1.00;;;;;;5158690;27;20630;-65
2021/03/18 07:26:21;;;;;;;15.32;7.97;;;4.50;1.00;;;;;;5159987;27;20180;-64
2021/03/18 07:28:53;;;;;;;17.30;9.07;;;4.60;1.00;;;;;;5159792;27;20606;-65
2021/03/18 07:31:20;;;;;;;15.25;8.45;;;4.80;9.10;;;;;;5159433;27;20484;-65
2021/03/18 07:33:47;;;;;;;18.85;8.13;;;5.10;1.00;;;;;;5148513;27;20249;-64
2021/03/18 07:36:14;;;;;;;20.60;9.43;;;5.00;1.00;;;;;;5118950;27;20186;-65
2021/03/18 07:38:41;;;;;;;16.67;8.27;;;4.50;1.00;;;;;;5131599;27;20548;-65
2021/03/18 07:41:15;;;;;;;15.95;9.80;;;4.30;1.00;;;;;;5138983;27;20191;-63
2021/03/18 07:43:43;;;;;;;15.40;8.45;;;4.40;1.90;;;;;;5129906;27;20190;-65
2021/03/18 07:46:13;;;;;;;20.65;9.00;;;4.30;1.00;;;;;;5120273;27;20175;-65
2021/03/18 07:48:39;;;;;;;19.65;8.80;;;4.50;47.30;;;;;;5138562;27;20649;-62
2021/03/18 07:51:05;;;;;;;20.37;10.07;;;4.50;26.00;;;;;;5138884;27;20178;-64
2021/03/18 07:53:31;;;;;;;18.90;8.77;;;4.40;35.70;;;;;;5138666;27;20519;-63
2021/03/18 07:55:58;;;;;;;23.92;8.40;;;4.40;38.70;;;;;;5137032;27;20652;-62
2021/03/18 07:58:41;;;;;;;14.93;8.43;;;4.30;62.60;;;;;;5138844;27;20183;-64
2021/03/18 08:01:06;;;;;;;21.17;7.80;;;4.60;73.20;;;;;;5117854;28;20527;-66
2021/03/18 08:03:33;;;;;;;17.60;8.33;;;4.50;9.60;;;;;;5123747;27;20178;-65
2021/03/18 08:06:00;;;;;;;19.70;8.45;;;4.50;39.70;;;;;;5138063;27;20206;-72
2021/03/18 08:08:32;;;;;;;17.83;9.10;;;4.70;45.90;;;;;;5125960;27;20175;-65
2021/03/18 08:11:06;;;;;;;20.45;10.43;;;4.90;41.10;;;;;;5117157;28;20199;-71
2021/03/18 08:13:33;;;;;;;19.35;8.25;;;5.20;1.00;;;;;;5135381;27;20180;-63
2021/03/18 08:16:00;;;;;;;18.17;9.40;;;5.20;1.00;;;;;;5137852;27;20200;-65
2021/03/18 08:18:25;;;;;;;24.45;11.52;;;5.10;1.00;;;;;;5138006;27;20178;-64
2021/03/18 08:20:51;;;;;;;19.80;8.20;;;4.90;1.00;;;;;;5138291;27;20178;-61
2021/03/18 08:23:22;;;;;;;18.40;11.07;;;4.80;1.00;;;;;;5137455;27;20595;-63
2021/03/18 08:25:53;;;;;;;22.85;10.48;;;4.80;1.00;;;;;;5137386;27;20522;-64
2021/03/18 08:28:39;;;;;;;19.23;9.25;;;5.20;1.00;;;;;;5136167;27;20185;-66
2021/03/18 08:31:06;;;;;;;21.52;9.57;;;5.50;1.00;;;;;;5135982;27;20190;-67
2021/03/18 08:33:38;;;;;;;19.00;8.15;;;5.80;1.00;;;;;;5137263;27;20178;-66
2021/03/18 08:36:26;;;;;;;20.30;9.70;;;5.60;1.00;;;;;;5136760;27;20197;-68
2021/03/18 08:38:55;;;;;;;21.00;9.23;;;5.50;1.00;;;;;;5137686;27;20240;-71
2021/03/18 08:41:35;;;;;;;19.90;8.40;;;5.20;1.00;;;;;;5136068;27;20182;-68
2021/03/18 08:44:24;;;;;;;19.83;10.40;;;5.40;1.00;;;;;;5137041;27;20584;-67
2021/03/18 08:47:04;;;;;;;19.70;9.38;;;5.40;1.00;;;;;;5137705;27;20174;-64
2021/03/18 08:49:34;;;;;;;19.08;7.93;;;4.90;1.00;;;;;;5136400;27;20175;-64
2021/03/18 08:52:04;;;;;;;22.30;10.20;;;5.30;1.00;;;;;;5119103;27;20196;-66
2021/03/18 08:54:38;;;;;;;23.35;10.55;;;5.30;1.00;;;;;;5116528;28;20179;-64
2021/03/18 08:57:21;;;;;;;17.65;8.70;;;5.00;1.00;;;;;;5116652;28;20293;-62
2021/03/18 08:59:49;;;;;;;20.13;9.43;;;4.90;1.00;;;;;;5116187;28;20183;-63
2021/03/18 09:02:18;;;;;;;17.80;10.05;;;4.80;1.00;;;;;;5116128;28;20687;-62
2021/03/18 09:04:46;;;;;;;17.45;9.57;;;4.90;1.00;;;;;;5133521;27;20188;-64
2021/03/18 09:07:23;;;;;;;20.27;10.48;;;5.20;1.00;;;;;;5135429;27;20279;-63
2021/03/18 09:10:13;;;;;;;15.73;8.95;;;5.40;1.00;;;;;;5116778;28;20172;-64
2021/03/18 09:12:53;;;;;;;20.95;10.20;;;5.50;1.00;;;;;;5117364;28;20669;-64
2021/03/18 09:15:23;;;;;;;24.17;11.68;;;5.20;1.00;;;;;;5116599;28;20187;-63
2021/03/18 09:17:52;;;;;;;18.85;9.82;;;5.40;1.00;;;;;;5115672;28;20581;-66
2021/03/18 09:20:24;;;;;;;17.42;9.68;;;5.60;1.00;;;;;;5115872;28;20193;-64
2021/03/18 09:22:49;;;;;;;20.70;9.65;;;5.70;1.00;;;;;;5116352;28;20172;-65
2021/03/18 09:25:16;;;;;;;17.80;10.20;;;5.80;1.00;;;;;;5116196;27;20175;-65
2021/03/18 09:27:44;;;;;;;20.30;8.68;;;5.70;99.90;;;;;;5115950;28;20177;-64
2021/03/18 09:30:21;;;;;;;20.58;9.43;;;5.80;99.90;;;;;;5115461;28;20214;-65
2021/03/18 09:32:48;;;;;;;19.10;9.52;;;6.10;99.90;;;;;;5115215;28;20175;-68
2021/03/18 09:35:15;;;;;;;15.20;8.30;;;6.10;99.90;;;;;;5114625;28;20266;-66
2021/03/18 09:37:40;;;;;;;15.38;7.95;;;6.30;1.00;;;;;;5114254;28;20300;-66
2021/03/18 09:40:09;;;;;;;17.40;9.60;;;6.40;1.00;;;;;;5114826;28;20201;-67
2021/03/18 09:42:35;;;;;;;16.23;7.47;;;6.60;99.90;;;;;;5126418;27;20432;-66
2021/03/18 09:45:02;;;;;;;17.15;9.05;;;7.00;1.00;;;;;;5132957;27;20170;-65
2021/03/18 09:47:28;;;;;;;15.35;8.32;;;7.40;99.90;;;;;;5134967;27;20211;-67
2021/03/18 09:49:55;;;;;;;12.55;7.95;;;7.50;1.00;;;;;;5136061;27;20590;-66
2021/03/18 09:52:22;;;;;;;14.80;7.80;;;7.30;1.00;;;;;;5134198;27;20487;-66
2021/03/18 09:54:49;;;;;;;13.82;7.47;;;7.50;99.90;;;;;;5134953;27;20187;-66
2021/03/18 09:57:15;;;;;;;14.38;7.80;;;7.60;99.90;;;;;;5134896;27;20204;-66
2021/03/18 09:59:41;;;;;;;13.57;7.70;;;7.30;1.00;;;;;;5135213;27;20557;-66
2021/03/18 10:02:08;;;;;;;18.03;9.37;;;7.40;1.00;;;;;;5133902;27;20422;-66
2021/03/18 10:04:40;;;;;;;15.13;8.02;;;7.30;1.00;;;;;;5134544;27;20423;-67
2021/03/18 10:07:06;;;;;;;17.40;9.20;;;7.50;96.30;;;;;;5134858;27;20192;-68
2021/03/18 10:09:36;;;;;;;13.60;8.60;;;7.90;99.90;;;;;;5134934;27;20597;-66
2021/03/18 10:12:07;;;;;;;14.48;8.35;;;8.10;1.00;;;;;;5135144;27;20425;-67
2021/03/18 10:14:45;;;;;;;13.68;9.48;;;8.50;99.90;;;;;;5134642;27;20180;-66
2021/03/18 10:17:16;;;;;;;16.30;8.30;;;8.20;1.00;;;;;;5134308;27;20243;-67
2021/03/18 10:20:01;;;;;;;12.80;8.80;;;8.10;99.90;;;;;;5134654;27;20173;-66
2021/03/18 10:22:38;;;;;;;17.38;9.88;;;8.00;99.90;;;;;;5135160;27;20679;-67
2021/03/18 10:25:18;;;;;;;12.27;8.43;;;8.20;99.90;;;;;;5133814;28;20184;-67
2021/03/18 10:27:50;;;;;;;14.18;9.38;;;8.40;1.00;;;;;;5130673;27;20181;-67
2021/03/18 10:30:25;;;;;;;15.05;9.50;;;8.10;1.00;;;;;;5126970;28;20550;-68
2021/03/18 10:33:04;;;;;;;12.75;9.35;;;8.20;1.00;;;;;;5117816;28;20197;-69
2021/03/18 10:35:32;;;;;;;13.40;8.95;;;8.00;1.00;;;;;;5117005;28;20248;-68
2021/03/18 10:37:58;;;;;;;12.18;8.80;;;7.70;99.90;;;;;;5134749;28;20216;-65
2021/03/18 10:40:26;;;;;;;9.63;7.37;;;7.60;1.00;;;;;;5134858;28;20183;-66
2021/03/18 10:42:58;;;;;;;12.27;8.88;;;7.80;34.50;;;;;;5133315;28;20440;-66
2021/03/18 10:45:27;;;;;;;14.30;10.00;;;7.80;99.90;;;;;;5136472;27;20181;-65
2021/03/18 10:47:55;;;;;;;29.20;16.98;;;7.90;1.00;;;;;;5138739;27;20202;-66
2021/03/18 10:50:24;;;;;;;9.75;7.38;;;8.10;93.10;;;;;;5138656;27;20506;-66
2021/03/18 10:52:58;;;;;;;18.98;12.10;;;7.40;1.00;;;;;;5138711;27;20229;-68
2021/03/18 10:55:49;;;;;;;13.10;8.52;;;7.50;99.90;;;;;;5138744;27;20510;-67
2021/03/18 10:58:21;;;;;;;10.82;7.95;;;7.90;92.80;;;;;;5138718;27;20200;-68
2021/03/18 11:00:55;;;;;;;9.60;7.80;;;7.40;99.90;;;;;;5138288;27;20613;-66
2021/03/18 11:03:33;;;;;;;11.30;8.02;;;7.90;1.00;;;;;;5124362;27;20518;-69
2021/03/18 11:05:59;;;;;;;12.45;7.85;;;7.10;1.00;;;;;;5138792;27;20250;-65
2021/03/18 11:08:32;;;;;;;10.07;6.95;;;6.70;99.90;;;;;;5138509;27;20181;-68
2021/03/18 11:11:00;;;;;;;13.55;7.82;;;7.20;1.00;;;;;;5138343;27;20185;-65
2021/03/18 11:13:28;;;;;;;9.60;6.80;;;7.10;99.90;;;;;;5137845;27;20272;-63
2021/03/18 11:16:03;;;;;;;12.55;8.52;;;7.30;1.00;;;;;;5138250;27;20218;-66
2021/03/18 11:18:40;;;;;;;9.93;7.43;;;7.90;1.00;;;;;;5137374;27;20185;-66
2021/03/18 11:21:23;;;;;;;10.25;7.47;;;8.70;1.00;;;;;;5138907;27;20229;-66
2021/03/18 11:23:50;;;;;;;9.00;7.10;;;9.50;84.70;;;;;;5138376;27;20196;-65
2021/03/18 11:26:19;;;;;;;7.18;5.32;;;10.40;1.00;;;;;;5138018;27;20178;-67
2021/03/18 11:29:12;;;;;;;7.70;5.80;;;10.60;99.90;;;;;;5137902;27;20265;-67
2021/03/18 11:31:40;;;;;;;7.55;4.60;;;10.90;99.90;;;;;;5135882;27;20195;-65
2021/03/18 11:34:23;;;;;;;8.30;5.00;;;10.70;99.90;;;;;;5137818;27;20466;-65
2021/03/18 11:36:51;;;;;;;8.18;5.20;;;9.50;99.90;;;;;;5121522;27;20211;-67
2021/03/18 11:39:18;;;;;;;9.63;5.55;;;9.10;1.00;;;;;;5117428;28;20610;-67
2021/03/18 11:41:44;;;;;;;9.10;5.22;;;8.70;1.00;;;;;;5123007;27;20178;-66
2021/03/18 11:44:10;;;;;;;5.57;4.90;;;8.20;95.50;;;;;;5136601;27;20508;-68
2021/03/18 11:46:38;;;;;;;8.70;5.50;;;7.10;1.00;;;;;;5136739;27;20177;-67
2021/03/18 11:49:03;;;;;;;8.77;6.07;;;6.80;99.90;;;;;;5137434;27;20795;-63
2021/03/18 11:51:32;;;;;;;10.83;6.43;;;7.30;99.90;;;;;;5137315;27;20473;-64
2021/03/18 11:53:58;;;;;;;8.15;5.75;;;7.60;99.90;;;;;;5137073;27;20185;-64
2021/03/18 11:56:24;;;;;;;7.10;5.65;;;8.00;99.90;;;;;;5136364;27;20181;-65
2021/03/18 11:58:50;;;;;;;5.53;4.60;;;8.30;1.00;;;;;;5137260;27;20232;-66
2021/03/18 12:01:15;;;;;;;6.43;5.20;;;7.50;99.90;;;;;;5138087;27;20176;-66
2021/03/18 12:03:44;;;;;;;6.53;4.47;;;7.00;99.90;;;;;;5136135;27;20504;-66
2021/03/18 12:06:11;;;;;;;6.63;4.70;;;7.20;99.90;;;;;;5123899;27;20259;-65
2021/03/18 12:08:37;;;;;;;12.40;5.45;;;7.40;99.90;;;;;;5116338;28;20334;-65
2021/03/18 12:11:04;;;;;;;8.30;5.77;;;7.70;65.90;;;;;;5116585;28;20645;-67
2021/03/18 12:13:31;;;;;;;5.10;4.65;;;7.90;1.00;;;;;;5116508;28;20543;-67
2021/03/18 12:15:57;;;;;;;7.93;4.30;;;7.90;1.00;;;;;;5115889;28;20196;-65
2021/03/18 12:18:23;;;;;;;4.87;4.30;;;7.60;1.00;;;;;;5128722;27;20478;-67
2021/03/18 12:20:48;;;;;;;4.78;3.90;;;8.20;1.00;;;;;;5136632;27;20204;-66
2021/03/18 12:23:14;;;;;;;5.10;4.60;;;8.80;99.90;;;;;;5136217;27;20598;-67
2021/03/18 12:25:40;;;;;;;7.70;5.90;;;8.90;99.90;;;;;;5136727;27;20606;-66
2021/03/18 12:28:05;;;;;;;8.70;5.30;;;8.30;1.00;;;;;;5136408;27;20246;-64
2021/03/18 12:30:31;;;;;;;4.00;3.60;;;8.20;1.00;;;;;;5136302;27;20261;-66
2021/03/18 12:32:56;;;;;;;5.50;4.17;;;8.10;99.90;;;;;;5136389;27;20195;-66
2021/03/18 12:35:23;;;;;;;5.40;3.30;;;8.30;99.90;;;;;;5131198;27;20207;-66
2021/03/18 12:37:50;;;;;;;4.18;3.10;;;7.90;1.00;;;;;;5115840;27;20201;-65
2021/03/18 12:40:17;;;;;;;3.33;2.67;;;7.70;1.00;;;;;;5116621;28;20193;-65
2021/03/18 12:42:43;;;;;;;6.20;3.13;;;7.20;1.00;;;;;;5130883;27;20192;-67
2021/03/18 12:45:12;;;;;;;3.90;2.63;;;6.90;10.10;;;;;;5137151;27;20617;-67
2021/03/18 12:47:39;;;;;;;8.43;3.13;;;6.80;1.00;;;;;;5137292;27;20423;-64
2021/03/18 12:50:07;;;;;;;4.22;3.58;;;6.60;99.90;;;;;;5137031;27;20177;-66
2021/03/18 12:52:33;;;;;;;5.22;4.22;;;6.80;1.00;;;;;;5137070;27;20173;-66
2021/03/18 12:54:59;;;;;;;4.50;3.73;;;6.50;99.90;;;;;;5137593;27;20283;-69
2021/03/18 12:57:24;;;;;;;6.70;3.70;;;6.40;99.90;;;;;;5137729;27;20585;-68
2021/03/18 12:59:50;;;;;;;4.50;4.00;;;6.50;99.90;;;;;;5135848;27;20671;-62
2021/03/18 13:02:15;;;;;;;7.10;4.30;;;6.50;1.00;;;;;;5136844;27;20176;-62
2021/03/18 13:04:41;;;;;;;7.70;4.93;;;6.60;1.00;;;;;;5135975;27;20213;-67